createdAt,value
2023-05-03T00:00:08.711Z,8.20
2023-05-03T00:05:18.036Z,8.18
2023-05-03T00:10:23.928Z,7.99
2023-05-03T00:15:29.521Z,8.06
2023-05-03T00:20:35.124Z,8.04
2023-05-03T00:25:40.687Z,7.99
2023-05-03T00:30:48.191Z,7.96
2023-05-03T00:35:53.656Z,7.92
2023-05-03T00:41:03.254Z,7.88
2023-05-03T00:46:17.234Z,7.83
2023-05-03T00:51:21.887Z,7.73
2023-05-03T00:56:29.492Z,7.77
2023-05-03T01:01:35.225Z,7.77
2023-05-03T01:07:00.266Z,7.71
2023-05-03T01:12:13.355Z,7.66
2023-05-03T01:17:22.161Z,7.78
2023-05-03T01:22:44.666Z,7.70
2023-05-03T01:27:52.350Z,7.55
2023-05-03T01:33:07.024Z,7.56
2023-05-03T01:38:15.261Z,7.51
2023-05-03T01:43:32.064Z,7.44
2023-05-03T01:48:41.296Z,7.50
2023-05-03T01:53:49.245Z,7.41
2023-05-03T01:58:54.714Z,7.26
2023-05-03T02:04:06.554Z,7.10
2023-05-03T02:09:13.089Z,7.10
2023-05-03T02:14:18.755Z,7.07
2023-05-03T02:19:25.383Z,6.83
2023-05-03T02:24:31.221Z,6.80
2023-05-03T02:29:37.045Z,6.80
2023-05-03T02:34:43.192Z,6.73
2023-05-03T02:39:49.489Z,6.73
2023-05-03T02:44:55.321Z,6.71
2023-05-03T02:50:02.503Z,6.60
2023-05-03T02:55:10.479Z,6.60
2023-05-03T03:00:17.808Z,6.64
2023-05-03T03:05:23.531Z,6.64
2023-05-03T03:10:29.285Z,6.63
2023-05-03T03:15:36.472Z,6.63
2023-05-03T03:20:43.638Z,6.74
2023-05-03T03:25:49.361Z,6.69
2023-05-03T03:30:58.005Z,6.71
2023-05-03T03:36:10.213Z,6.76
2023-05-03T03:41:17.052Z,6.74
2023-05-03T03:46:23.248Z,6.82
2023-05-03T03:51:30.141Z,6.85
2023-05-03T03:56:36.023Z,6.85
2023-05-03T04:01:42.547Z,6.81
2023-05-03T04:06:49.186Z,6.81
2023-05-03T04:11:55.720Z,6.84
2023-05-03T04:17:02.184Z,7.01
2023-05-03T04:22:08.238Z,7.05
2023-05-03T04:27:15.212Z,7.05
2023-05-03T04:32:35.824Z,7.12
2023-05-03T04:37:44.033Z,7.27
2023-05-03T04:42:51.852Z,7.38
2023-05-03T04:47:57.979Z,7.37
2023-05-03T04:53:04.864Z,7.45
2023-05-03T04:58:12.814Z,7.45
2023-05-03T05:03:18.626Z,7.62
2023-05-03T05:14:35.599Z,7.93
2023-05-03T05:19:54.276Z,8.04
2023-05-03T05:24:59.766Z,8.23
2023-05-03T05:30:07.403Z,8.46
2023-05-03T05:35:13.396Z,8.62
2023-05-03T05:40:19.299Z,8.63
2023-05-03T05:45:26.559Z,8.58
2023-05-03T05:50:33.824Z,8.71
2023-05-03T05:55:55.658Z,8.84
2023-05-03T06:01:03.908Z,9.00
2023-05-03T06:11:43.287Z,9.09
2023-05-03T06:16:50.477Z,9.24
2023-05-03T06:27:54.685Z,9.80
2023-05-03T06:33:10.079Z,9.92
2023-05-03T06:38:43.946Z,10.06
2023-05-03T06:43:49.473Z,10.14
2023-05-03T06:48:58.063Z,10.37
2023-05-03T06:54:06.405Z,10.43
2023-05-03T06:59:11.902Z,10.51
2023-05-03T07:04:17.629Z,10.54
2023-05-03T07:14:44.481Z,10.74
2023-05-03T07:19:51.582Z,10.90
2023-05-03T07:24:58.764Z,11.00
2023-05-03T07:30:06.055Z,11.07
2023-05-03T07:35:11.850Z,11.19
2023-05-03T07:40:17.457Z,11.26
2023-05-03T07:45:22.969Z,11.42
2023-05-03T07:50:37.679Z,11.67
2023-05-03T07:55:43.440Z,11.62
2023-05-03T08:00:48.935Z,11.81
2023-05-03T08:06:01.128Z,11.91
2023-05-03T08:11:08.812Z,12.05
2023-05-03T08:16:16.418Z,12.24
2023-05-03T08:21:23.643Z,12.19
2023-05-03T08:26:29.996Z,12.49
2023-05-03T08:31:36.440Z,12.47
2023-05-03T08:36:41.994Z,12.57
2023-05-03T08:41:51.168Z,13.11
2023-05-03T08:46:56.744Z,13.08
2023-05-03T08:52:03.572Z,12.95
2023-05-03T08:57:17.845Z,13.14
2023-05-03T09:02:23.715Z,13.55
2023-05-03T09:07:29.348Z,13.73
2023-05-03T09:12:37.783Z,13.51
2023-05-03T09:17:43.840Z,13.64
2023-05-03T09:22:52.877Z,13.63
2023-05-03T09:28:02.720Z,13.85
2023-05-03T09:33:08.894Z,14.16
2023-05-03T09:38:17.501Z,13.80
2023-05-03T09:43:23.630Z,13.89
2023-05-03T09:48:29.581Z,14.09
2023-05-03T09:53:40.246Z,14.35
2023-05-03T09:58:50.622Z,14.44
2023-05-03T10:03:58.026Z,14.51
2023-05-03T10:09:20.532Z,14.62
2023-05-03T10:14:26.604Z,14.38
2023-05-03T10:19:53.436Z,14.15
2023-05-03T10:25:05.052Z,14.25
2023-05-03T10:30:12.794Z,14.07
2023-05-03T10:35:19.722Z,14.45
2023-05-03T10:40:29.671Z,14.94
2023-05-03T10:45:35.174Z,15.14
2023-05-03T10:50:41.721Z,14.98
2023-05-03T10:56:05.515Z,15.09
2023-05-03T11:01:22.095Z,14.72
2023-05-03T11:06:33.669Z,14.61
2023-05-03T11:11:41.268Z,14.64
2023-05-03T11:16:49.369Z,14.84
2023-05-03T11:21:55.658Z,15.25
2023-05-03T11:27:08.407Z,15.31
2023-05-03T11:32:13.172Z,15.25
2023-05-03T11:37:18.847Z,15.73
2023-05-03T11:42:34.991Z,15.67
2023-05-03T11:47:40.734Z,15.57
2023-05-03T11:52:47.018Z,15.58
2023-05-03T11:57:53.000Z,15.90
2023-05-03T12:03:02.401Z,16.21
2023-05-03T12:08:09.026Z,15.84
2023-05-03T12:13:18.026Z,15.79
2023-05-03T12:18:25.112Z,16.19
2023-05-03T12:23:34.202Z,16.42
2023-05-03T12:28:41.484Z,16.13
2023-05-03T12:34:06.015Z,15.88
2023-05-03T12:38:56.494Z,16.51
2023-05-03T12:44:05.049Z,16.40
2023-05-03T12:49:14.515Z,15.98
2023-05-03T12:54:21.186Z,15.84
2023-05-03T12:59:41.248Z,16.44
2023-05-03T13:14:57.206Z,16.70
2023-05-03T13:20:05.745Z,16.91
2023-05-03T13:25:13.639Z,16.86
2023-05-03T13:30:20.267Z,17.11
2023-05-03T13:35:26.064Z,16.99
2023-05-03T13:40:31.652Z,16.99
2023-05-03T13:45:37.187Z,17.11
2023-05-03T13:50:45.736Z,17.06
2023-05-03T13:55:51.882Z,17.18
2023-05-03T14:00:57.570Z,17.21
2023-05-03T14:06:03.829Z,17.35
2023-05-03T14:11:28.961Z,17.37
2023-05-03T14:16:41.455Z,17.29
2023-05-03T14:21:46.364Z,17.69
2023-05-03T14:26:52.434Z,17.74
2023-05-03T14:32:08.198Z,17.58
2023-05-03T14:37:15.063Z,17.39
2023-05-03T14:42:33.356Z,17.47
2023-05-03T14:47:51.827Z,17.77
2023-05-03T14:53:04.843Z,17.83
2023-05-03T14:58:10.476Z,17.48
2023-05-03T15:03:49.855Z,17.22
2023-05-03T15:08:55.827Z,17.35
2023-05-03T15:14:01.493Z,17.65
2023-05-03T15:19:08.036Z,17.13
2023-05-03T15:24:14.470Z,17.15
2023-05-03T15:29:22.059Z,17.48
2023-05-03T15:34:28.013Z,18.09
2023-05-03T15:39:33.553Z,18.79
2023-05-03T15:44:39.073Z,19.25
2023-05-03T15:49:51.603Z,19.33
2023-05-03T15:54:57.049Z,18.77
2023-05-03T16:00:04.287Z,18.14
2023-05-03T16:05:12.012Z,17.29
2023-05-03T16:10:17.783Z,17.52
2023-05-03T16:15:23.431Z,17.92
2023-05-03T16:20:28.985Z,17.83
2023-05-03T16:25:34.431Z,17.48
2023-05-03T16:30:39.949Z,17.25
2023-05-03T16:35:46.015Z,17.47
2023-05-03T16:40:51.558Z,19.05
2023-05-03T16:46:02.512Z,17.73
2023-05-03T16:51:08.128Z,18.64
2023-05-03T16:56:13.685Z,18.20
2023-05-03T17:01:19.593Z,18.49
2023-05-03T17:06:25.303Z,18.28
2023-05-03T17:11:31.053Z,18.07
2023-05-03T17:16:40.094Z,17.39
2023-05-03T17:21:45.740Z,17.04
2023-05-03T17:26:51.472Z,16.62
2023-05-03T17:31:57.278Z,16.04
2023-05-03T17:37:02.900Z,15.74
2023-05-03T17:42:08.578Z,15.37
2023-05-03T17:47:15.263Z,15.01
2023-05-03T17:52:20.994Z,14.89
2023-05-03T17:57:26.636Z,14.54
2023-05-03T18:02:32.142Z,14.52
2023-05-03T18:07:37.592Z,14.41
2023-05-03T18:12:43.979Z,14.19
2023-05-03T18:17:49.572Z,13.93
2023-05-03T18:22:56.899Z,13.65
2023-05-03T18:28:03.116Z,13.62
2023-05-03T18:33:09.197Z,13.37
2023-05-03T18:38:15.921Z,13.16
2023-05-03T18:43:21.456Z,13.04
2023-05-03T18:48:27.129Z,13.96
2023-05-03T18:53:36.545Z,13.25
2023-05-03T18:58:41.995Z,13.10
2023-05-03T19:03:47.672Z,12.93
2023-05-03T19:08:54.092Z,12.61
2023-05-03T19:14:00.540Z,12.33
2023-05-03T19:19:11.900Z,12.20
2023-05-03T19:24:17.630Z,12.08
2023-05-03T19:29:23.153Z,12.02
2023-05-03T19:34:28.732Z,11.94
2023-05-03T19:39:35.849Z,11.79
2023-05-03T19:44:41.329Z,11.70
2023-05-03T19:49:47.271Z,11.63
2023-05-03T19:54:52.939Z,11.51
2023-05-03T20:00:00.252Z,11.46
2023-05-03T20:05:09.014Z,11.37
2023-05-03T20:10:14.765Z,11.28
2023-05-03T20:15:20.340Z,11.23
2023-05-03T20:20:26.541Z,11.19
2023-05-03T20:25:32.970Z,11.08
2023-05-03T20:30:39.070Z,11.04
2023-05-03T20:35:44.649Z,10.96
2023-05-03T20:40:50.368Z,10.80
2023-05-03T20:45:56.926Z,10.82
2023-05-03T20:51:02.941Z,10.78
2023-05-03T20:56:08.732Z,10.70
2023-05-03T21:01:14.598Z,10.66
2023-05-03T21:06:22.784Z,10.59
2023-05-03T21:11:28.295Z,10.54
2023-05-03T21:16:33.868Z,10.48
2023-05-03T21:21:39.366Z,10.40
2023-05-03T21:26:44.881Z,10.35
2023-05-03T21:31:51.194Z,10.28
2023-05-03T21:36:56.879Z,10.25
2023-05-03T21:42:02.380Z,10.19
2023-05-03T21:47:07.910Z,10.18
2023-05-03T21:52:14.584Z,10.16
2023-05-03T21:57:20.051Z,10.07
2023-05-03T22:02:25.862Z,10.04
2023-05-03T22:07:31.696Z,9.98
2023-05-03T22:12:37.229Z,9.94
2023-05-03T22:17:43.346Z,9.66
2023-05-03T22:22:48.909Z,9.56
2023-05-03T22:27:55.337Z,9.53
2023-05-03T22:33:00.994Z,9.48
2023-05-03T22:38:07.192Z,9.44
2023-05-03T22:43:12.757Z,9.31
2023-05-03T22:48:18.445Z,9.20
2023-05-03T22:53:23.877Z,9.13
2023-05-03T22:58:29.777Z,9.15
2023-05-03T23:03:35.479Z,9.07
2023-05-03T23:08:41.381Z,8.95
2023-05-03T23:13:46.816Z,8.88
2023-05-03T23:18:54.225Z,8.82
2023-05-03T23:23:59.580Z,8.76
2023-05-03T23:29:05.088Z,8.74
2023-05-03T23:34:11.185Z,8.70
2023-05-03T23:39:16.628Z,8.67
2023-05-03T23:44:22.092Z,8.66
2023-05-03T23:49:27.556Z,8.64
2023-05-03T23:54:33.657Z,8.63
2023-05-03T23:59:39.512Z,8.58
